sensor_id;sensor_type;location;lat;lon;timestamp;P1;durP1;ratioP1;P2;durP2;ratioP2
81154;SDS011;70631;50.436;7.826;2023-08-08T00:00:07;2.53;;;1.50;;
81154;SDS011;70631;50.436;7.826;2023-08-08T00:02:33;1.25;;;1.10;;
81154;SDS011;70631;50.436;7.826;2023-08-08T00:04:59;2.63;;;1.83;;
81154;SDS011;70631;50.436;7.826;2023-08-08T00:07:24;1.90;;;1.10;;
81154;SDS011;70631;50.436;7.826;2023-08-08T00:09:49;2.50;;;1.93;;
81154;SDS011;70631;50.436;7.826;2023-08-08T00:12:15;1.80;;;1.30;;
81154;SDS011;70631;50.436;7.826;2023-08-08T00:14:40;2.53;;;1.50;;
81154;SDS011;70631;50.436;7.826;2023-08-08T00:17:05;1.67;;;1.57;;
81154;SDS011;70631;50.436;7.826;2023-08-08T00:19:31;2.30;;;1.63;;
81154;SDS011;70631;50.436;7.826;2023-08-08T00:21:56;3.17;;;1.50;;
81154;SDS011;70631;50.436;7.826;2023-08-08T00:24:21;1.80;;;1.15;;
81154;SDS011;70631;50.436;7.826;2023-08-08T00:26:47;2.10;;;1.40;;
81154;SDS011;70631;50.436;7.826;2023-08-08T00:29:12;3.70;;;1.63;;
81154;SDS011;70631;50.436;7.826;2023-08-08T00:31:37;2.10;;;1.60;;
81154;SDS011;70631;50.436;7.826;2023-08-08T00:34:02;2.30;;;1.60;;
81154;SDS011;70631;50.436;7.826;2023-08-08T00:36:28;6.10;;;1.75;;
81154;SDS011;70631;50.436;7.826;2023-08-08T00:38:53;2.37;;;1.73;;
81154;SDS011;70631;50.436;7.826;2023-08-08T00:41:18;5.43;;;1.73;;
81154;SDS011;70631;50.436;7.826;2023-08-08T00:43:44;2.40;;;1.50;;
81154;SDS011;70631;50.436;7.826;2023-08-08T00:46:09;2.30;;;1.60;;
81154;SDS011;70631;50.436;7.826;2023-08-08T00:48:35;5.45;;;2.17;;
81154;SDS011;70631;50.436;7.826;2023-08-08T00:51:01;3.33;;;1.40;;
81154;SDS011;70631;50.436;7.826;2023-08-08T00:53:26;3.28;;;1.80;;
81154;SDS011;70631;50.436;7.826;2023-08-08T00:55:56;1.88;;;1.27;;
81154;SDS011;70631;50.436;7.826;2023-08-08T00:58:21;2.85;;;2.08;;
81154;SDS011;70631;50.436;7.826;2023-08-08T01:00:46;2.13;;;1.30;;
81154;SDS011;70631;50.436;7.826;2023-08-08T01:03:12;6.53;;;1.60;;
81154;SDS011;70631;50.436;7.826;2023-08-08T01:05:38;4.40;;;1.60;;
81154;SDS011;70631;50.436;7.826;2023-08-08T01:08:12;3.88;;;1.58;;
81154;SDS011;70631;50.436;7.826;2023-08-08T01:10:44;2.72;;;1.67;;
81154;SDS011;70631;50.436;7.826;2023-08-08T01:13:11;2.50;;;1.33;;
81154;SDS011;70631;50.436;7.826;2023-08-08T01:15:41;5.07;;;2.10;;
81154;SDS011;70631;50.436;7.826;2023-08-08T01:18:10;3.65;;;1.38;;
81154;SDS011;70631;50.436;7.826;2023-08-08T01:20:36;3.90;;;1.40;;
81154;SDS011;70631;50.436;7.826;2023-08-08T01:28:12;2.45;;;1.85;;
81154;SDS011;70631;50.436;7.826;2023-08-08T01:30:38;3.10;;;1.80;;
81154;SDS011;70631;50.436;7.826;2023-08-08T01:33:04;4.07;;;2.20;;
81154;SDS011;70631;50.436;7.826;2023-08-08T01:35:31;3.80;;;2.10;;
81154;SDS011;70631;50.436;7.826;2023-08-08T01:38:10;2.53;;;2.33;;
81154;SDS011;70631;50.436;7.826;2023-08-08T01:40:42;2.67;;;2.13;;
81154;SDS011;70631;50.436;7.826;2023-08-08T01:43:09;3.67;;;2.38;;
81154;SDS011;70631;50.436;7.826;2023-08-08T01:45:36;4.07;;;2.00;;
81154;SDS011;70631;50.436;7.826;2023-08-08T01:48:07;3.00;;;2.20;;
81154;SDS011;70631;50.436;7.826;2023-08-08T01:50:32;3.05;;;2.17;;
81154;SDS011;70631;50.436;7.826;2023-08-08T01:52:58;2.83;;;2.03;;
81154;SDS011;70631;50.436;7.826;2023-08-08T01:55:23;5.53;;;2.43;;
81154;SDS011;70631;50.436;7.826;2023-08-08T01:57:48;3.90;;;2.70;;
81154;SDS011;70631;50.436;7.826;2023-08-08T02:00:14;12.83;;;2.37;;
81154;SDS011;70631;50.436;7.826;2023-08-08T02:02:39;11.37;;;2.60;;
81154;SDS011;70631;50.436;7.826;2023-08-08T02:05:04;2.70;;;2.50;;
81154;SDS011;70631;50.436;7.826;2023-08-08T02:07:30;4.43;;;2.70;;
81154;SDS011;70631;50.436;7.826;2023-08-08T02:09:55;3.13;;;1.87;;
81154;SDS011;70631;50.436;7.826;2023-08-08T02:12:20;5.27;;;2.60;;
81154;SDS011;70631;50.436;7.826;2023-08-08T02:14:45;4.07;;;1.93;;
81154;SDS011;70631;50.436;7.826;2023-08-08T02:17:11;2.17;;;1.73;;
81154;SDS011;70631;50.436;7.826;2023-08-08T02:19:36;3.72;;;2.15;;
81154;SDS011;70631;50.436;7.826;2023-08-08T02:22:01;2.70;;;2.07;;
81154;SDS011;70631;50.436;7.826;2023-08-08T02:24:27;3.67;;;1.98;;
81154;SDS011;70631;50.436;7.826;2023-08-08T02:26:52;3.43;;;2.30;;
81154;SDS011;70631;50.436;7.826;2023-08-08T02:29:17;2.77;;;2.10;;
81154;SDS011;70631;50.436;7.826;2023-08-08T02:31:43;3.93;;;1.90;;
81154;SDS011;70631;50.436;7.826;2023-08-08T02:34:08;3.23;;;1.80;;
81154;SDS011;70631;50.436;7.826;2023-08-08T02:36:33;2.83;;;1.97;;
81154;SDS011;70631;50.436;7.826;2023-08-08T02:38:58;2.97;;;1.93;;
81154;SDS011;70631;50.436;7.826;2023-08-08T02:41:24;3.67;;;1.60;;
81154;SDS011;70631;50.436;7.826;2023-08-08T02:43:49;2.10;;;1.60;;
81154;SDS011;70631;50.436;7.826;2023-08-08T02:46:14;8.40;;;7.03;;
81154;SDS011;70631;50.436;7.826;2023-08-08T02:48:40;5.20;;;4.33;;
81154;SDS011;70631;50.436;7.826;2023-08-08T02:51:05;5.07;;;3.10;;
81154;SDS011;70631;50.436;7.826;2023-08-08T02:53:30;5.67;;;2.70;;
81154;SDS011;70631;50.436;7.826;2023-08-08T02:55:55;3.20;;;2.40;;
81154;SDS011;70631;50.436;7.826;2023-08-08T02:58:21;4.80;;;2.43;;
81154;SDS011;70631;50.436;7.826;2023-08-08T03:00:46;4.70;;;2.40;;
81154;SDS011;70631;50.436;7.826;2023-08-08T03:03:11;7.55;;;2.28;;
81154;SDS011;70631;50.436;7.826;2023-08-08T03:05:37;3.70;;;1.97;;
81154;SDS011;70631;50.436;7.826;2023-08-08T03:08:02;3.63;;;2.03;;
81154;SDS011;70631;50.436;7.826;2023-08-08T03:10:27;2.88;;;1.67;;
81154;SDS011;70631;50.436;7.826;2023-08-08T03:12:53;3.73;;;2.23;;
81154;SDS011;70631;50.436;7.826;2023-08-08T03:15:18;5.60;;;2.60;;
81154;SDS011;70631;50.436;7.826;2023-08-08T03:17:43;3.33;;;1.93;;
81154;SDS011;70631;50.436;7.826;2023-08-08T03:20:09;4.60;;;2.03;;
81154;SDS011;70631;50.436;7.826;2023-08-08T03:22:35;2.92;;;2.20;;
81154;SDS011;70631;50.436;7.826;2023-08-08T03:25:01;5.18;;;2.05;;
81154;SDS011;70631;50.436;7.826;2023-08-08T03:27:26;2.95;;;2.25;;
81154;SDS011;70631;50.436;7.826;2023-08-08T03:29:52;3.33;;;2.30;;
81154;SDS011;70631;50.436;7.826;2023-08-08T03:32:17;2.93;;;1.90;;
81154;SDS011;70631;50.436;7.826;2023-08-08T03:34:42;3.57;;;2.50;;
81154;SDS011;70631;50.436;7.826;2023-08-08T03:37:08;3.57;;;2.30;;
81154;SDS011;70631;50.436;7.826;2023-08-08T03:39:33;3.07;;;2.50;;
81154;SDS011;70631;50.436;7.826;2023-08-08T03:41:58;2.70;;;2.50;;
81154;SDS011;70631;50.436;7.826;2023-08-08T03:44:23;4.87;;;3.10;;
81154;SDS011;70631;50.436;7.826;2023-08-08T03:46:49;3.43;;;3.07;;
81154;SDS011;70631;50.436;7.826;2023-08-08T03:49:14;3.17;;;2.70;;
81154;SDS011;70631;50.436;7.826;2023-08-08T03:51:40;4.18;;;3.20;;
81154;SDS011;70631;50.436;7.826;2023-08-08T03:54:05;8.03;;;3.47;;
81154;SDS011;70631;50.436;7.826;2023-08-08T03:56:30;3.93;;;3.43;;
81154;SDS011;70631;50.436;7.826;2023-08-08T03:58:57;5.80;;;3.10;;
81154;SDS011;70631;50.436;7.826;2023-08-08T04:01:22;3.75;;;2.90;;
81154;SDS011;70631;50.436;7.826;2023-08-08T04:03:48;3.73;;;2.87;;
81154;SDS011;70631;50.436;7.826;2023-08-08T04:06:13;3.03;;;2.50;;
81154;SDS011;70631;50.436;7.826;2023-08-08T04:08:38;4.20;;;2.70;;
81154;SDS011;70631;50.436;7.826;2023-08-08T04:11:03;5.27;;;3.47;;
81154;SDS011;70631;50.436;7.826;2023-08-08T04:13:29;5.53;;;3.07;;
81154;SDS011;70631;50.436;7.826;2023-08-08T04:15:54;3.42;;;2.42;;
81154;SDS011;70631;50.436;7.826;2023-08-08T04:18:20;3.70;;;2.93;;
81154;SDS011;70631;50.436;7.826;2023-08-08T04:20:45;4.90;;;2.93;;
81154;SDS011;70631;50.436;7.826;2023-08-08T04:23:11;7.22;;;3.05;;
81154;SDS011;70631;50.436;7.826;2023-08-08T04:25:37;5.83;;;3.33;;
81154;SDS011;70631;50.436;7.826;2023-08-08T04:28:02;4.57;;;3.27;;
81154;SDS011;70631;50.436;7.826;2023-08-08T04:30:28;4.75;;;3.30;;
81154;SDS011;70631;50.436;7.826;2023-08-08T04:32:53;4.50;;;3.63;;
81154;SDS011;70631;50.436;7.826;2023-08-08T04:35:19;7.70;;;2.73;;
81154;SDS011;70631;50.436;7.826;2023-08-08T04:37:44;6.93;;;3.30;;
81154;SDS011;70631;50.436;7.826;2023-08-08T04:40:09;4.17;;;3.27;;
81154;SDS011;70631;50.436;7.826;2023-08-08T04:42:35;3.78;;;3.13;;
81154;SDS011;70631;50.436;7.826;2023-08-08T04:45:00;3.92;;;3.00;;
81154;SDS011;70631;50.436;7.826;2023-08-08T04:47:26;4.93;;;3.17;;
81154;SDS011;70631;50.436;7.826;2023-08-08T04:49:51;4.05;;;2.80;;
81154;SDS011;70631;50.436;7.826;2023-08-08T04:52:16;5.40;;;3.33;;
81154;SDS011;70631;50.436;7.826;2023-08-08T04:54:41;4.97;;;3.27;;
81154;SDS011;70631;50.436;7.826;2023-08-08T04:57:07;4.40;;;3.17;;
81154;SDS011;70631;50.436;7.826;2023-08-08T04:59:32;6.53;;;2.73;;
81154;SDS011;70631;50.436;7.826;2023-08-08T05:01:57;4.10;;;3.47;;
81154;SDS011;70631;50.436;7.826;2023-08-08T05:04:23;4.77;;;3.60;;
81154;SDS011;70631;50.436;7.826;2023-08-08T05:06:48;7.10;;;3.13;;
81154;SDS011;70631;50.436;7.826;2023-08-08T05:09:13;5.00;;;3.33;;
81154;SDS011;70631;50.436;7.826;2023-08-08T05:11:38;5.77;;;3.43;;
81154;SDS011;70631;50.436;7.826;2023-08-08T05:14:04;5.47;;;3.43;;
81154;SDS011;70631;50.436;7.826;2023-08-08T05:16:29;7.53;;;4.30;;
81154;SDS011;70631;50.436;7.826;2023-08-08T05:18:54;6.97;;;3.50;;
81154;SDS011;70631;50.436;7.826;2023-08-08T05:21:20;5.93;;;3.83;;
81154;SDS011;70631;50.436;7.826;2023-08-08T05:23:46;5.68;;;3.42;;
81154;SDS011;70631;50.436;7.826;2023-08-08T05:26:11;18.90;;;3.80;;
81154;SDS011;70631;50.436;7.826;2023-08-08T05:28:36;5.43;;;2.53;;
81154;SDS011;70631;50.436;7.826;2023-08-08T05:31:02;4.80;;;2.50;;
81154;SDS011;70631;50.436;7.826;2023-08-08T05:33:27;6.43;;;2.17;;
81154;SDS011;70631;50.436;7.826;2023-08-08T05:35:52;3.70;;;2.57;;
81154;SDS011;70631;50.436;7.826;2023-08-08T05:38:18;2.43;;;1.73;;
81154;SDS011;70631;50.436;7.826;2023-08-08T05:40:43;3.80;;;1.98;;
81154;SDS011;70631;50.436;7.826;2023-08-08T05:43:08;2.90;;;2.00;;
81154;SDS011;70631;50.436;7.826;2023-08-08T05:45:34;2.73;;;2.20;;
81154;SDS011;70631;50.436;7.826;2023-08-08T05:47:59;6.13;;;2.45;;
81154;SDS011;70631;50.436;7.826;2023-08-08T05:50:26;2.25;;;1.75;;
81154;SDS011;70631;50.436;7.826;2023-08-08T05:52:52;2.65;;;1.50;;
81154;SDS011;70631;50.436;7.826;2023-08-08T05:55:17;3.07;;;1.80;;
81154;SDS011;70631;50.436;7.826;2023-08-08T05:57:42;1.73;;;1.30;;
81154;SDS011;70631;50.436;7.826;2023-08-08T06:00:08;1.27;;;1.10;;
81154;SDS011;70631;50.436;7.826;2023-08-08T06:02:36;3.65;;;1.20;;
81154;SDS011;70631;50.436;7.826;2023-08-08T06:05:01;5.15;;;1.45;;
81154;SDS011;70631;50.436;7.826;2023-08-08T06:07:26;2.63;;;1.20;;
81154;SDS011;70631;50.436;7.826;2023-08-08T06:09:52;3.30;;;1.50;;
81154;SDS011;70631;50.436;7.826;2023-08-08T06:12:17;3.43;;;1.10;;
81154;SDS011;70631;50.436;7.826;2023-08-08T06:14:42;2.00;;;1.00;;
81154;SDS011;70631;50.436;7.826;2023-08-08T06:17:08;3.43;;;1.27;;
81154;SDS011;70631;50.436;7.826;2023-08-08T06:19:33;3.70;;;1.20;;
81154;SDS011;70631;50.436;7.826;2023-08-08T06:21:58;2.40;;;1.27;;
81154;SDS011;70631;50.436;7.826;2023-08-08T06:24:23;3.37;;;1.13;;
81154;SDS011;70631;50.436;7.826;2023-08-08T06:26:49;1.83;;;1.10;;
81154;SDS011;70631;50.436;7.826;2023-08-08T06:29:14;2.15;;;1.10;;
81154;SDS011;70631;50.436;7.826;2023-08-08T06:31:39;2.50;;;1.37;;
81154;SDS011;70631;50.436;7.826;2023-08-08T06:34:04;6.00;;;1.25;;
81154;SDS011;70631;50.436;7.826;2023-08-08T06:36:30;2.95;;;1.27;;
81154;SDS011;70631;50.436;7.826;2023-08-08T06:38:56;1.83;;;1.27;;
81154;SDS011;70631;50.436;7.826;2023-08-08T06:41:21;3.57;;;1.50;;
81154;SDS011;70631;50.436;7.826;2023-08-08T06:43:46;1.92;;;1.13;;
81154;SDS011;70631;50.436;7.826;2023-08-08T06:46:12;1.87;;;1.03;;
81154;SDS011;70631;50.436;7.826;2023-08-08T06:48:37;1.98;;;1.13;;
81154;SDS011;70631;50.436;7.826;2023-08-08T06:51:02;3.28;;;1.38;;
81154;SDS011;70631;50.436;7.826;2023-08-08T06:53:28;2.70;;;1.03;;
81154;SDS011;70631;50.436;7.826;2023-08-08T06:55:53;2.88;;;1.35;;
81154;SDS011;70631;50.436;7.826;2023-08-08T06:58:18;3.73;;;1.33;;
81154;SDS011;70631;50.436;7.826;2023-08-08T07:00:43;1.90;;;1.20;;
81154;SDS011;70631;50.436;7.826;2023-08-08T07:03:10;2.30;;;1.20;;
81154;SDS011;70631;50.436;7.826;2023-08-08T07:05:35;4.05;;;1.85;;
81154;SDS011;70631;50.436;7.826;2023-08-08T07:08:00;3.97;;;1.37;;
81154;SDS011;70631;50.436;7.826;2023-08-08T07:10:27;4.70;;;1.87;;
81154;SDS011;70631;50.436;7.826;2023-08-08T07:12:52;3.08;;;1.30;;
81154;SDS011;70631;50.436;7.826;2023-08-08T07:15:18;2.10;;;1.20;;
81154;SDS011;70631;50.436;7.826;2023-08-08T07:17:43;2.08;;;1.17;;
81154;SDS011;70631;50.436;7.826;2023-08-08T07:20:09;1.50;;;1.05;;
81154;SDS011;70631;50.436;7.826;2023-08-08T07:22:38;2.72;;;1.20;;
81154;SDS011;70631;50.436;7.826;2023-08-08T07:25:04;3.03;;;1.43;;
81154;SDS011;70631;50.436;7.826;2023-08-08T07:27:30;1.77;;;0.98;;
81154;SDS011;70631;50.436;7.826;2023-08-08T07:29:56;2.97;;;1.38;;
81154;SDS011;70631;50.436;7.826;2023-08-08T07:32:21;3.90;;;1.10;;
81154;SDS011;70631;50.436;7.826;2023-08-08T07:34:46;2.13;;;1.17;;
81154;SDS011;70631;50.436;7.826;2023-08-08T07:37:13;3.47;;;1.30;;
81154;SDS011;70631;50.436;7.826;2023-08-08T07:39:39;1.45;;;1.15;;
81154;SDS011;70631;50.436;7.826;2023-08-08T07:42:04;2.40;;;1.20;;
81154;SDS011;70631;50.436;7.826;2023-08-08T07:44:29;2.13;;;1.30;;
81154;SDS011;70631;50.436;7.826;2023-08-08T07:46:56;4.63;;;1.55;;
81154;SDS011;70631;50.436;7.826;2023-08-08T07:49:22;3.43;;;1.10;;
81154;SDS011;70631;50.436;7.826;2023-08-08T07:51:47;1.00;;;0.90;;
81154;SDS011;70631;50.436;7.826;2023-08-08T07:54:12;4.93;;;1.90;;
81154;SDS011;70631;50.436;7.826;2023-08-08T07:56:37;5.90;;;1.43;;
81154;SDS011;70631;50.436;7.826;2023-08-08T07:59:03;2.58;;;1.50;;
81154;SDS011;70631;50.436;7.826;2023-08-08T08:01:29;2.45;;;1.35;;
81154;SDS011;70631;50.436;7.826;2023-08-08T08:03:54;3.00;;;1.40;;
81154;SDS011;70631;50.436;7.826;2023-08-08T08:06:20;2.65;;;1.38;;
81154;SDS011;70631;50.436;7.826;2023-08-08T08:08:45;2.60;;;1.10;;
81154;SDS011;70631;50.436;7.826;2023-08-08T08:11:11;2.70;;;1.50;;
81154;SDS011;70631;50.436;7.826;2023-08-08T08:13:38;2.65;;;1.33;;
81154;SDS011;70631;50.436;7.826;2023-08-08T08:16:03;4.28;;;1.50;;
81154;SDS011;70631;50.436;7.826;2023-08-08T08:18:29;4.23;;;1.53;;
81154;SDS011;70631;50.436;7.826;2023-08-08T08:20:54;1.77;;;1.23;;
81154;SDS011;70631;50.436;7.826;2023-08-08T08:23:20;1.88;;;1.40;;
81154;SDS011;70631;50.436;7.826;2023-08-08T08:25:45;4.63;;;1.30;;
81154;SDS011;70631;50.436;7.826;2023-08-08T08:28:10;1.77;;;1.30;;
81154;SDS011;70631;50.436;7.826;2023-08-08T08:30:36;2.90;;;1.37;;
81154;SDS011;70631;50.436;7.826;2023-08-08T08:33:01;3.20;;;1.38;;
81154;SDS011;70631;50.436;7.826;2023-08-08T08:35:29;2.13;;;1.42;;
81154;SDS011;70631;50.436;7.826;2023-08-08T08:37:54;2.33;;;1.33;;
81154;SDS011;70631;50.436;7.826;2023-08-08T08:40:19;3.83;;;1.77;;
81154;SDS011;70631;50.436;7.826;2023-08-08T08:42:45;2.50;;;1.50;;
81154;SDS011;70631;50.436;7.826;2023-08-08T08:45:12;2.67;;;1.60;;
81154;SDS011;70631;50.436;7.826;2023-08-08T08:47:40;2.40;;;1.60;;
81154;SDS011;70631;50.436;7.826;2023-08-08T08:50:08;5.05;;;1.80;;
81154;SDS011;70631;50.436;7.826;2023-08-08T08:52:33;2.53;;;1.70;;
81154;SDS011;70631;50.436;7.826;2023-08-08T08:54:59;3.65;;;1.60;;
81154;SDS011;70631;50.436;7.826;2023-08-08T08:57:25;2.97;;;1.38;;
81154;SDS011;70631;50.436;7.826;2023-08-08T08:59:51;3.47;;;1.75;;
81154;SDS011;70631;50.436;7.826;2023-08-08T09:02:17;2.47;;;1.25;;
81154;SDS011;70631;50.436;7.826;2023-08-08T09:04:43;3.70;;;1.65;;
81154;SDS011;70631;50.436;7.826;2023-08-08T09:07:10;5.88;;;1.83;;
81154;SDS011;70631;50.436;7.826;2023-08-08T09:09:36;2.17;;;1.52;;
81154;SDS011;70631;50.436;7.826;2023-08-08T09:12:03;2.45;;;1.60;;
81154;SDS011;70631;50.436;7.826;2023-08-08T09:14:32;3.30;;;1.52;;
81154;SDS011;70631;50.436;7.826;2023-08-08T09:16:57;3.20;;;1.40;;
81154;SDS011;70631;50.436;7.826;2023-08-08T09:19:23;4.90;;;1.70;;
81154;SDS011;70631;50.436;7.826;2023-08-08T09:21:49;5.72;;;2.63;;
81154;SDS011;70631;50.436;7.826;2023-08-08T09:24:15;3.03;;;1.50;;
81154;SDS011;70631;50.436;7.826;2023-08-08T09:26:41;4.95;;;1.52;;
81154;SDS011;70631;50.436;7.826;2023-08-08T09:29:07;4.53;;;1.65;;
81154;SDS011;70631;50.436;7.826;2023-08-08T09:31:34;5.25;;;1.92;;
81154;SDS011;70631;50.436;7.826;2023-08-08T09:34:00;4.65;;;2.17;;
81154;SDS011;70631;50.436;7.826;2023-08-08T09:36:26;2.00;;;1.58;;
81154;SDS011;70631;50.436;7.826;2023-08-08T09:38:52;4.13;;;1.70;;
81154;SDS011;70631;50.436;7.826;2023-08-08T09:41:18;4.43;;;1.55;;
81154;SDS011;70631;50.436;7.826;2023-08-08T09:43:45;3.58;;;1.60;;
81154;SDS011;70631;50.436;7.826;2023-08-08T09:46:10;3.43;;;1.53;;
81154;SDS011;70631;50.436;7.826;2023-08-08T09:48:35;2.63;;;1.77;;
81154;SDS011;70631;50.436;7.826;2023-08-08T09:51:03;8.02;;;2.10;;
81154;SDS011;70631;50.436;7.826;2023-08-08T09:53:29;4.20;;;1.83;;
81154;SDS011;70631;50.436;7.826;2023-08-08T09:55:55;3.33;;;2.03;;
81154;SDS011;70631;50.436;7.826;2023-08-08T09:58:21;4.97;;;1.88;;
81154;SDS011;70631;50.436;7.826;2023-08-08T10:00:50;5.32;;;2.17;;
81154;SDS011;70631;50.436;7.826;2023-08-08T10:03:16;4.80;;;2.05;;
81154;SDS011;70631;50.436;7.826;2023-08-08T10:05:42;4.50;;;2.50;;
81154;SDS011;70631;50.436;7.826;2023-08-08T10:08:07;5.28;;;1.95;;
81154;SDS011;70631;50.436;7.826;2023-08-08T10:10:33;3.00;;;1.70;;
81154;SDS011;70631;50.436;7.826;2023-08-08T10:12:59;4.03;;;1.50;;
81154;SDS011;70631;50.436;7.826;2023-08-08T10:15:25;4.05;;;1.65;;
81154;SDS011;70631;50.436;7.826;2023-08-08T10:17:53;5.47;;;1.92;;
81154;SDS011;70631;50.436;7.826;2023-08-08T10:20:20;3.35;;;1.83;;
81154;SDS011;70631;50.436;7.826;2023-08-08T10:22:46;3.50;;;1.75;;
81154;SDS011;70631;50.436;7.826;2023-08-08T10:25:28;2.50;;;1.70;;
81154;SDS011;70631;50.436;7.826;2023-08-08T10:28:02;3.90;;;1.73;;
81154;SDS011;70631;50.436;7.826;2023-08-08T10:30:28;7.68;;;1.90;;
81154;SDS011;70631;50.436;7.826;2023-08-08T10:32:56;3.10;;;1.98;;
81154;SDS011;70631;50.436;7.826;2023-08-08T10:35:22;2.20;;;1.58;;
81154;SDS011;70631;50.436;7.826;2023-08-08T10:37:53;3.95;;;1.50;;
81154;SDS011;70631;50.436;7.826;2023-08-08T10:40:19;3.63;;;1.77;;
81154;SDS011;70631;50.436;7.826;2023-08-08T10:42:45;2.63;;;1.50;;
81154;SDS011;70631;50.436;7.826;2023-08-08T10:45:12;3.10;;;1.65;;
81154;SDS011;70631;50.436;7.826;2023-08-08T10:47:38;5.22;;;2.13;;
81154;SDS011;70631;50.436;7.826;2023-08-08T10:55:26;3.78;;;1.40;;
81154;SDS011;70631;50.436;7.826;2023-08-08T11:00:31;4.15;;;1.90;;
81154;SDS011;70631;50.436;7.826;2023-08-08T11:02:59;5.07;;;2.35;;
81154;SDS011;70631;50.436;7.826;2023-08-08T11:05:25;1.98;;;1.77;;
81154;SDS011;70631;50.436;7.826;2023-08-08T11:07:52;5.50;;;1.75;;
81154;SDS011;70631;50.436;7.826;2023-08-08T11:10:18;3.22;;;1.60;;
81154;SDS011;70631;50.436;7.826;2023-08-08T11:12:54;2.80;;;1.13;;
81154;SDS011;70631;50.436;7.826;2023-08-08T11:15:21;5.07;;;1.67;;
81154;SDS011;70631;50.436;7.826;2023-08-08T11:17:46;6.13;;;1.90;;
81154;SDS011;70631;50.436;7.826;2023-08-08T11:20:13;4.95;;;1.60;;
81154;SDS011;70631;50.436;7.826;2023-08-08T11:22:38;2.87;;;1.50;;
81154;SDS011;70631;50.436;7.826;2023-08-08T11:25:03;3.73;;;1.70;;
81154;SDS011;70631;50.436;7.826;2023-08-08T11:27:29;4.47;;;1.80;;
81154;SDS011;70631;50.436;7.826;2023-08-08T11:29:56;3.80;;;1.63;;
81154;SDS011;70631;50.436;7.826;2023-08-08T11:32:21;1.83;;;1.38;;
81154;SDS011;70631;50.436;7.826;2023-08-08T11:34:47;5.38;;;1.92;;
81154;SDS011;70631;50.436;7.826;2023-08-08T11:37:12;3.05;;;1.95;;
81154;SDS011;70631;50.436;7.826;2023-08-08T11:39:40;3.42;;;1.50;;
81154;SDS011;70631;50.436;7.826;2023-08-08T11:42:06;2.90;;;1.60;;
81154;SDS011;70631;50.436;7.826;2023-08-08T11:44:31;3.42;;;1.77;;
81154;SDS011;70631;50.436;7.826;2023-08-08T11:47:00;2.28;;;1.63;;
81154;SDS011;70631;50.436;7.826;2023-08-08T11:49:26;3.60;;;1.77;;
81154;SDS011;70631;50.436;7.826;2023-08-08T11:51:53;3.20;;;1.80;;
81154;SDS011;70631;50.436;7.826;2023-08-08T11:54:20;5.10;;;1.90;;
81154;SDS011;70631;50.436;7.826;2023-08-08T11:56:46;2.13;;;1.13;;
81154;SDS011;70631;50.436;7.826;2023-08-08T11:59:11;3.65;;;1.55;;
81154;SDS011;70631;50.436;7.826;2023-08-08T12:01:37;3.65;;;1.92;;
81154;SDS011;70631;50.436;7.826;2023-08-08T12:04:07;2.08;;;1.70;;
81154;SDS011;70631;50.436;7.826;2023-08-08T12:06:33;3.40;;;1.70;;
81154;SDS011;70631;50.436;7.826;2023-08-08T12:09:03;5.75;;;1.55;;
81154;SDS011;70631;50.436;7.826;2023-08-08T12:11:31;3.95;;;1.52;;
81154;SDS011;70631;50.436;7.826;2023-08-08T12:13:59;2.97;;;1.30;;
81154;SDS011;70631;50.436;7.826;2023-08-08T12:16:27;2.03;;;1.42;;
81154;SDS011;70631;50.436;7.826;2023-08-08T12:18:53;2.13;;;1.33;;
81154;SDS011;70631;50.436;7.826;2023-08-08T12:21:18;2.65;;;1.50;;
81154;SDS011;70631;50.436;7.826;2023-08-08T12:23:43;2.87;;;1.30;;
81154;SDS011;70631;50.436;7.826;2023-08-08T12:26:09;3.60;;;1.50;;
81154;SDS011;70631;50.436;7.826;2023-08-08T12:28:34;1.85;;;1.17;;
81154;SDS011;70631;50.436;7.826;2023-08-08T12:31:00;3.43;;;1.40;;
81154;SDS011;70631;50.436;7.826;2023-08-08T12:33:25;3.30;;;1.33;;
81154;SDS011;70631;50.436;7.826;2023-08-08T12:35:50;3.77;;;1.80;;
81154;SDS011;70631;50.436;7.826;2023-08-08T12:38:16;3.80;;;1.27;;
81154;SDS011;70631;50.436;7.826;2023-08-08T12:40:41;1.47;;;1.30;;
81154;SDS011;70631;50.436;7.826;2023-08-08T12:43:07;3.15;;;1.20;;
81154;SDS011;70631;50.436;7.826;2023-08-08T12:45:32;4.20;;;1.40;;
81154;SDS011;70631;50.436;7.826;2023-08-08T12:47:57;2.72;;;1.60;;
81154;SDS011;70631;50.436;7.826;2023-08-08T12:50:23;7.45;;;1.50;;
81154;SDS011;70631;50.436;7.826;2023-08-08T12:52:49;2.70;;;1.45;;
81154;SDS011;70631;50.436;7.826;2023-08-08T12:55:14;3.73;;;1.50;;
81154;SDS011;70631;50.436;7.826;2023-08-08T12:57:42;1.88;;;1.30;;
81154;SDS011;70631;50.436;7.826;2023-08-08T13:00:07;4.10;;;1.45;;
81154;SDS011;70631;50.436;7.826;2023-08-08T13:02:33;3.60;;;1.52;;
81154;SDS011;70631;50.436;7.826;2023-08-08T13:04:59;4.60;;;1.47;;
81154;SDS011;70631;50.436;7.826;2023-08-08T13:07:24;4.23;;;1.53;;
81154;SDS011;70631;50.436;7.826;2023-08-08T13:09:50;5.35;;;1.65;;
81154;SDS011;70631;50.436;7.826;2023-08-08T13:12:16;3.93;;;1.20;;
81154;SDS011;70631;50.436;7.826;2023-08-08T13:14:41;2.50;;;1.30;;
81154;SDS011;70631;50.436;7.826;2023-08-08T13:17:06;3.95;;;1.52;;
81154;SDS011;70631;50.436;7.826;2023-08-08T13:19:31;3.47;;;1.20;;
81154;SDS011;70631;50.436;7.826;2023-08-08T13:21:57;3.43;;;1.67;;
81154;SDS011;70631;50.436;7.826;2023-08-08T13:24:22;1.77;;;1.00;;
81154;SDS011;70631;50.436;7.826;2023-08-08T13:26:48;3.40;;;1.45;;
81154;SDS011;70631;50.436;7.826;2023-08-08T13:29:16;2.20;;;1.90;;
81154;SDS011;70631;50.436;7.826;2023-08-08T13:31:41;4.30;;;1.17;;
81154;SDS011;70631;50.436;7.826;2023-08-08T13:34:07;2.30;;;1.20;;
81154;SDS011;70631;50.436;7.826;2023-08-08T13:36:32;4.35;;;1.60;;
81154;SDS011;70631;50.436;7.826;2023-08-08T13:38:57;4.10;;;1.83;;
81154;SDS011;70631;50.436;7.826;2023-08-08T13:41:23;3.77;;;1.10;;
81154;SDS011;70631;50.436;7.826;2023-08-08T13:43:48;12.13;;;1.88;;
81154;SDS011;70631;50.436;7.826;2023-08-08T13:46:14;2.73;;;1.53;;
81154;SDS011;70631;50.436;7.826;2023-08-08T13:48:39;2.97;;;1.37;;
81154;SDS011;70631;50.436;7.826;2023-08-08T13:51:05;4.43;;;1.17;;
81154;SDS011;70631;50.436;7.826;2023-08-08T13:53:30;3.17;;;1.47;;
81154;SDS011;70631;50.436;7.826;2023-08-08T13:55:55;4.17;;;1.23;;
81154;SDS011;70631;50.436;7.826;2023-08-08T13:58:21;4.20;;;1.02;;
81154;SDS011;70631;50.436;7.826;2023-08-08T14:00:47;4.97;;;1.40;;
81154;SDS011;70631;50.436;7.826;2023-08-08T14:03:13;6.70;;;1.30;;
81154;SDS011;70631;50.436;7.826;2023-08-08T14:05:38;3.70;;;1.20;;
81154;SDS011;70631;50.436;7.826;2023-08-08T14:08:04;3.45;;;1.38;;
81154;SDS011;70631;50.436;7.826;2023-08-08T14:10:30;4.05;;;1.33;;
81154;SDS011;70631;50.436;7.826;2023-08-08T14:12:55;4.87;;;1.40;;
81154;SDS011;70631;50.436;7.826;2023-08-08T14:15:20;3.90;;;1.40;;
81154;SDS011;70631;50.436;7.826;2023-08-08T14:17:46;2.85;;;1.10;;
81154;SDS011;70631;50.436;7.826;2023-08-08T14:20:11;1.38;;;0.77;;
81154;SDS011;70631;50.436;7.826;2023-08-08T14:22:37;3.17;;;1.40;;
81154;SDS011;70631;50.436;7.826;2023-08-08T14:25:02;7.70;;;2.53;;
81154;SDS011;70631;50.436;7.826;2023-08-08T14:27:29;3.15;;;1.20;;
81154;SDS011;70631;50.436;7.826;2023-08-08T14:29:54;1.93;;;0.80;;
81154;SDS011;70631;50.436;7.826;2023-08-08T14:32:19;2.47;;;1.10;;
81154;SDS011;70631;50.436;7.826;2023-08-08T14:34:44;2.43;;;1.43;;
81154;SDS011;70631;50.436;7.826;2023-08-08T14:37:10;1.83;;;0.90;;
81154;SDS011;70631;50.436;7.826;2023-08-08T14:39:35;2.60;;;1.17;;
81154;SDS011;70631;50.436;7.826;2023-08-08T14:42:01;6.23;;;1.37;;
81154;SDS011;70631;50.436;7.826;2023-08-08T14:44:26;5.03;;;1.27;;
81154;SDS011;70631;50.436;7.826;2023-08-08T14:46:52;4.03;;;1.40;;
81154;SDS011;70631;50.436;7.826;2023-08-08T14:49:17;4.43;;;1.53;;
81154;SDS011;70631;50.436;7.826;2023-08-08T14:51:42;2.87;;;1.10;;